sensor_id;sensor_type;location;lat;lon;timestamp;pressure;altitude;pressure_sealevel;temperature;humidity
63287;BME280;49410;55.708;37.522;2023-03-19T00:00:07;100819.84;;;-1.69;42.88
63287;BME280;49410;55.708;37.522;2023-03-19T00:02:34;100807.38;;;-1.70;41.85
63287;BME280;49410;55.708;37.522;2023-03-19T00:05:00;100817.25;;;-1.71;42.81
63287;BME280;49410;55.708;37.522;2023-03-19T00:07:31;100810.94;;;-1.70;42.01
63287;BME280;49410;55.708;37.522;2023-03-19T00:09:57;100802.19;;;-1.75;42.10
63287;BME280;49410;55.708;37.522;2023-03-19T00:12:23;100805.16;;;-1.81;43.32
63287;BME280;49410;55.708;37.522;2023-03-19T00:14:51;100795.97;;;-1.76;42.42
63287;BME280;49410;55.708;37.522;2023-03-19T00:17:17;100791.53;;;-1.77;42.47
63287;BME280;49410;55.708;37.522;2023-03-19T00:19:42;100793.22;;;-1.74;42.37
63287;BME280;49410;55.708;37.522;2023-03-19T00:22:08;100790.00;;;-1.82;42.84
63287;BME280;49410;55.708;37.522;2023-03-19T00:24:33;100792.13;;;-1.91;43.08
63287;BME280;49410;55.708;37.522;2023-03-19T00:26:59;100788.50;;;-1.90;43.80
63287;BME280;49410;55.708;37.522;2023-03-19T00:29:25;100784.09;;;-1.91;43.79
63287;BME280;49410;55.708;37.522;2023-03-19T00:31:50;100782.38;;;-1.93;44.31
63287;BME280;49410;55.708;37.522;2023-03-19T00:34:16;100783.34;;;-1.94;43.26
63287;BME280;49410;55.708;37.522;2023-03-19T00:36:43;100782.44;;;-1.95;43.24
63287;BME280;49410;55.708;37.522;2023-03-19T00:39:09;100780.66;;;-1.94;44.96
63287;BME280;49410;55.708;37.522;2023-03-19T00:41:35;100775.09;;;-1.90;43.63
63287;BME280;49410;55.708;37.522;2023-03-19T00:44:00;100771.91;;;-1.99;44.85
63287;BME280;49410;55.708;37.522;2023-03-19T00:46:25;100767.78;;;-2.08;45.53
63287;BME280;49410;55.708;37.522;2023-03-19T00:48:51;100772.03;;;-2.03;44.69
63287;BME280;49410;55.708;37.522;2023-03-19T00:51:20;100773.03;;;-2.05;44.56
63287;BME280;49410;55.708;37.522;2023-03-19T00:53:46;100765.72;;;-2.01;44.92
63287;BME280;49410;55.708;37.522;2023-03-19T00:56:13;100765.19;;;-2.10;45.44
63287;BME280;49410;55.708;37.522;2023-03-19T00:58:39;100773.94;;;-2.05;45.32
63287;BME280;49410;55.708;37.522;2023-03-19T01:01:06;100764.88;;;-2.02;45.00
63287;BME280;49410;55.708;37.522;2023-03-19T01:03:33;100759.63;;;-2.05;45.09
63287;BME280;49410;55.708;37.522;2023-03-19T01:05:58;100768.69;;;-2.08;45.69
63287;BME280;49410;55.708;37.522;2023-03-19T01:08:24;100759.75;;;-2.08;45.78
63287;BME280;49410;55.708;37.522;2023-03-19T01:10:52;100765.72;;;-2.01;44.66
63287;BME280;49410;55.708;37.522;2023-03-19T01:13:17;100769.31;;;-2.01;45.03
63287;BME280;49410;55.708;37.522;2023-03-19T01:15:44;100766.47;;;-1.98;44.66
63287;BME280;49410;55.708;37.522;2023-03-19T01:18:11;100770.03;;;-1.97;44.59
63287;BME280;49410;55.708;37.522;2023-03-19T01:20:39;100756.22;;;-2.09;45.82
63287;BME280;49410;55.708;37.522;2023-03-19T01:23:05;100766.28;;;-1.93;43.97
63287;BME280;49410;55.708;37.522;2023-03-19T01:25:32;100759.94;;;-1.91;44.69
63287;BME280;49410;55.708;37.522;2023-03-19T01:27:57;100766.34;;;-1.95;44.93
63287;BME280;49410;55.708;37.522;2023-03-19T01:30:23;100764.75;;;-1.99;45.00
63287;BME280;49410;55.708;37.522;2023-03-19T01:32:49;100761.25;;;-2.01;45.19
63287;BME280;49410;55.708;37.522;2023-03-19T01:35:14;100751.72;;;-2.08;45.13
63287;BME280;49410;55.708;37.522;2023-03-19T01:37:40;100752.66;;;-2.09;45.24
63287;BME280;49410;55.708;37.522;2023-03-19T01:40:07;100756.47;;;-2.15;44.96
63287;BME280;49410;55.708;37.522;2023-03-19T01:42:50;100760.63;;;-2.08;45.52
63287;BME280;49410;55.708;37.522;2023-03-19T01:45:36;100754.53;;;-2.11;46.05
63287;BME280;49410;55.708;37.522;2023-03-19T01:48:03;100749.09;;;-2.10;44.68
63287;BME280;49410;55.708;37.522;2023-03-19T01:50:40;100747.44;;;-2.12;45.48
63287;BME280;49410;55.708;37.522;2023-03-19T01:53:09;100750.28;;;-2.17;45.65
63287;BME280;49410;55.708;37.522;2023-03-19T01:55:36;100747.81;;;-2.22;45.69
63287;BME280;49410;55.708;37.522;2023-03-19T01:58:03;100738.31;;;-2.30;45.98
63287;BME280;49410;55.708;37.522;2023-03-19T02:00:31;100742.75;;;-2.29;45.84
63287;BME280;49410;55.708;37.522;2023-03-19T02:02:59;100737.50;;;-2.32;45.41
63287;BME280;49410;55.708;37.522;2023-03-19T02:05:26;100735.00;;;-2.37;46.42
63287;BME280;49410;55.708;37.522;2023-03-19T02:07:55;100734.06;;;-2.36;45.98
63287;BME280;49410;55.708;37.522;2023-03-19T02:10:22;100724.28;;;-2.37;45.72
63287;BME280;49410;55.708;37.522;2023-03-19T02:12:49;100728.88;;;-2.39;46.06
63287;BME280;49410;55.708;37.522;2023-03-19T02:15:15;100731.53;;;-2.39;46.00
63287;BME280;49410;55.708;37.522;2023-03-19T02:17:41;100721.75;;;-2.40;46.11
63287;BME280;49410;55.708;37.522;2023-03-19T02:22:45;100724.97;;;-2.54;47.07
63287;BME280;49410;55.708;37.522;2023-03-19T02:25:26;100723.19;;;-2.54;47.25
63287;BME280;49410;55.708;37.522;2023-03-19T02:27:53;100712.53;;;-2.55;46.31
63287;BME280;49410;55.708;37.522;2023-03-19T02:30:30;100714.63;;;-2.63;47.95
63287;BME280;49410;55.708;37.522;2023-03-19T02:32:56;100724.59;;;-2.67;46.81
63287;BME280;49410;55.708;37.522;2023-03-19T02:35:22;100721.88;;;-2.66;46.82
63287;BME280;49410;55.708;37.522;2023-03-19T02:37:47;100714.97;;;-2.73;48.52
63287;BME280;49410;55.708;37.522;2023-03-19T02:40:26;100719.56;;;-2.75;47.91
63287;BME280;49410;55.708;37.522;2023-03-19T02:42:53;100717.84;;;-2.77;47.92
63287;BME280;49410;55.708;37.522;2023-03-19T02:45:19;100710.81;;;-2.80;47.72
63287;BME280;49410;55.708;37.522;2023-03-19T02:47:45;100718.66;;;-2.75;47.58
63287;BME280;49410;55.708;37.522;2023-03-19T02:50:11;100715.13;;;-2.76;47.47
63287;BME280;49410;55.708;37.522;2023-03-19T02:52:37;100710.00;;;-2.82;48.25
63287;BME280;49410;55.708;37.522;2023-03-19T02:55:03;100718.16;;;-2.85;48.31
63287;BME280;49410;55.708;37.522;2023-03-19T02:57:28;100708.38;;;-2.86;49.68
63287;BME280;49410;55.708;37.522;2023-03-19T02:59:54;100699.56;;;-2.90;47.67
63287;BME280;49410;55.708;37.522;2023-03-19T03:02:19;100709.31;;;-2.87;48.91
63287;BME280;49410;55.708;37.522;2023-03-19T03:04:45;100710.28;;;-2.90;48.05
63287;BME280;49410;55.708;37.522;2023-03-19T03:07:10;100698.72;;;-2.90;49.13
63287;BME280;49410;55.708;37.522;2023-03-19T03:09:36;100699.75;;;-2.94;47.64
63287;BME280;49410;55.708;37.522;2023-03-19T03:12:01;100700.81;;;-2.99;49.51
63287;BME280;49410;55.708;37.522;2023-03-19T03:14:27;100698.31;;;-3.03;48.84
63287;BME280;49410;55.708;37.522;2023-03-19T03:16:52;100699.41;;;-3.09;49.06
63287;BME280;49410;55.708;37.522;2023-03-19T03:19:18;100693.25;;;-3.11;48.30
63287;BME280;49410;55.708;37.522;2023-03-19T03:21:43;100689.00;;;-3.17;48.45
63287;BME280;49410;55.708;37.522;2023-03-19T03:24:09;100694.44;;;-3.20;48.24
63287;BME280;49410;55.708;37.522;2023-03-19T03:26:35;100694.59;;;-3.23;49.96
63287;BME280;49410;55.708;37.522;2023-03-19T03:29:04;100690.38;;;-3.30;48.89
63287;BME280;49410;55.708;37.522;2023-03-19T03:31:30;100695.78;;;-3.32;48.51
63287;BME280;49410;55.708;37.522;2023-03-19T03:33:55;100694.94;;;-3.32;50.27
63287;BME280;49410;55.708;37.522;2023-03-19T03:36:21;100696.78;;;-3.34;49.25
63287;BME280;49410;55.708;37.522;2023-03-19T03:38:46;100697.66;;;-3.34;48.86
63287;BME280;49410;55.708;37.522;2023-03-19T03:41:12;100696.78;;;-3.34;50.61
63287;BME280;49410;55.708;37.522;2023-03-19T03:43:37;100696.03;;;-3.38;48.81
63287;BME280;49410;55.708;37.522;2023-03-19T03:46:03;100697.66;;;-3.34;50.93
63287;BME280;49410;55.708;37.522;2023-03-19T03:48:29;100693.19;;;-3.33;49.09
63287;BME280;49410;55.708;37.522;2023-03-19T03:50:54;100691.38;;;-3.33;50.16
63287;BME280;49410;55.708;37.522;2023-03-19T03:53:20;100686.94;;;-3.34;48.85
63287;BME280;49410;55.708;37.522;2023-03-19T03:55:45;100688.88;;;-3.37;50.86
63287;BME280;49410;55.708;37.522;2023-03-19T03:58:11;100690.56;;;-3.35;49.02
63287;BME280;49410;55.708;37.522;2023-03-19T04:00:37;100682.50;;;-3.33;50.60
63287;BME280;49410;55.708;37.522;2023-03-19T04:03:02;100679.00;;;-3.35;49.50
63287;BME280;49410;55.708;37.522;2023-03-19T04:05:28;100689.44;;;-3.29;50.86
63287;BME280;49410;55.708;37.522;2023-03-19T04:07:53;100671.88;;;-3.36;49.25
63287;BME280;49410;55.708;37.522;2023-03-19T04:10:18;100682.19;;;-3.25;50.68
63287;BME280;49410;55.708;37.522;2023-03-19T04:12:44;100668.97;;;-3.30;49.06
63287;BME280;49410;55.708;37.522;2023-03-19T04:15:12;100678.38;;;-3.18;49.13
63287;BME280;49410;55.708;37.522;2023-03-19T04:17:38;100672.53;;;-3.06;50.46
63287;BME280;49410;55.708;37.522;2023-03-19T04:20:05;100679.28;;;-2.95;48.84
63287;BME280;49410;55.708;37.522;2023-03-19T04:22:31;100666.47;;;-2.87;48.75
63287;BME280;49410;55.708;37.522;2023-03-19T04:24:57;100662.41;;;-2.53;49.53
63287;BME280;49410;55.708;37.522;2023-03-19T04:27:23;100654.13;;;-2.25;48.14
63287;BME280;49410;55.708;37.522;2023-03-19T04:29:48;100666.34;;;-1.76;47.23
63287;BME280;49410;55.708;37.522;2023-03-19T04:32:13;100662.56;;;-1.31;45.76
63287;BME280;49410;55.708;37.522;2023-03-19T04:34:39;100655.97;;;-0.85;45.56
63287;BME280;49410;55.708;37.522;2023-03-19T04:37:06;100665.69;;;-0.27;44.21
63287;BME280;49410;55.708;37.522;2023-03-19T04:39:35;100656.03;;;0.22;43.55
63287;BME280;49410;55.708;37.522;2023-03-19T04:42:00;100650.13;;;0.66;43.20
63287;BME280;49410;55.708;37.522;2023-03-19T04:44:26;100663.41;;;1.19;42.02
63287;BME280;49410;55.708;37.522;2023-03-19T04:46:52;100637.47;;;1.48;41.04
63287;BME280;49410;55.708;37.522;2023-03-19T04:49:17;100634.84;;;1.79;40.92
63287;BME280;49410;55.708;37.522;2023-03-19T04:51:43;100643.31;;;2.03;40.12
63287;BME280;49410;55.708;37.522;2023-03-19T04:54:08;100639.13;;;2.28;40.13
63287;BME280;49410;55.708;37.522;2023-03-19T04:56:35;100643.00;;;2.53;40.08
63287;BME280;49410;55.708;37.522;2023-03-19T04:59:01;100638.47;;;2.68;40.17
63287;BME280;49410;55.708;37.522;2023-03-19T05:01:26;100632.66;;;2.45;38.89
63287;BME280;49410;55.708;37.522;2023-03-19T05:03:52;100648.13;;;2.43;39.12
63287;BME280;49410;55.708;37.522;2023-03-19T05:06:17;100637.84;;;2.19;39.43
63287;BME280;49410;55.708;37.522;2023-03-19T05:08:44;100644.44;;;1.99;40.37
63287;BME280;49410;55.708;37.522;2023-03-19T05:11:10;100636.91;;;1.74;40.00
63287;BME280;49410;55.708;37.522;2023-03-19T05:13:36;100638.38;;;1.49;40.34
63287;BME280;49410;55.708;37.522;2023-03-19T05:16:01;100629.88;;;1.24;40.30
63287;BME280;49410;55.708;37.522;2023-03-19T05:18:27;100637.94;;;1.08;41.20
63287;BME280;49410;55.708;37.522;2023-03-19T05:20:53;100634.13;;;0.97;41.46
63287;BME280;49410;55.708;37.522;2023-03-19T05:23:20;100642.00;;;0.84;41.49
63287;BME280;49410;55.708;37.522;2023-03-19T05:25:46;100630.75;;;0.59;42.17
63287;BME280;49410;55.708;37.522;2023-03-19T05:28:12;100643.75;;;0.51;42.64
63287;BME280;49410;55.708;37.522;2023-03-19T05:30:38;100633.94;;;0.50;42.80
63287;BME280;49410;55.708;37.522;2023-03-19T05:33:04;100628.63;;;0.49;43.07
63287;BME280;49410;55.708;37.522;2023-03-19T05:35:30;100617.69;;;0.52;43.62
63287;BME280;49410;55.708;37.522;2023-03-19T05:37:56;100621.09;;;0.71;42.98
63287;BME280;49410;55.708;37.522;2023-03-19T05:40:21;100618.53;;;0.86;43.37
63287;BME280;49410;55.708;37.522;2023-03-19T05:42:48;100619.50;;;1.01;43.15
63287;BME280;49410;55.708;37.522;2023-03-19T05:45:14;100602.97;;;1.07;43.07
63287;BME280;49410;55.708;37.522;2023-03-19T05:47:39;100605.88;;;1.20;42.69
63287;BME280;49410;55.708;37.522;2023-03-19T05:50:06;100612.91;;;1.22;41.75
63287;BME280;49410;55.708;37.522;2023-03-19T05:52:32;100596.66;;;1.24;43.19
63287;BME280;49410;55.708;37.522;2023-03-19T05:54:57;100600.38;;;1.37;41.97
63287;BME280;49410;55.708;37.522;2023-03-19T05:57:23;100591.84;;;1.45;41.65
63287;BME280;49410;55.708;37.522;2023-03-19T05:59:49;100597.16;;;1.47;41.90
63287;BME280;49410;55.708;37.522;2023-03-19T06:02:14;100595.66;;;1.41;41.41
63287;BME280;49410;55.708;37.522;2023-03-19T06:04:40;100599.66;;;1.66;42.29
63287;BME280;49410;55.708;37.522;2023-03-19T06:07:06;100583.63;;;1.63;42.68
63287;BME280;49410;55.708;37.522;2023-03-19T06:09:31;100578.66;;;1.71;42.92
63287;BME280;49410;55.708;37.522;2023-03-19T06:11:57;100580.50;;;1.85;43.02
63287;BME280;49410;55.708;37.522;2023-03-19T06:14:23;100578.88;;;1.82;42.37
63287;BME280;49410;55.708;37.522;2023-03-19T06:16:48;100576.41;;;1.94;42.38
63287;BME280;49410;55.708;37.522;2023-03-19T06:19:14;100578.72;;;2.00;42.71
63287;BME280;49410;55.708;37.522;2023-03-19T06:21:40;100571.13;;;2.07;42.12
63287;BME280;49410;55.708;37.522;2023-03-19T06:24:06;100564.09;;;2.04;42.63
63287;BME280;49410;55.708;37.522;2023-03-19T06:26:32;100574.78;;;2.06;41.90
63287;BME280;49410;55.708;37.522;2023-03-19T06:28:58;100562.06;;;1.93;41.53
63287;BME280;49410;55.708;37.522;2023-03-19T06:31:23;100562.63;;;1.98;41.63
63287;BME280;49410;55.708;37.522;2023-03-19T06:33:49;100569.78;;;2.14;42.01
63287;BME280;49410;55.708;37.522;2023-03-19T06:36:15;100552.44;;;2.18;42.58
63287;BME280;49410;55.708;37.522;2023-03-19T06:38:41;100566.25;;;2.28;41.70
63287;BME280;49410;55.708;37.522;2023-03-19T06:41:07;100547.66;;;2.23;41.76
63287;BME280;49410;55.708;37.522;2023-03-19T06:43:32;100553.22;;;2.35;41.87
63287;BME280;49410;55.708;37.522;2023-03-19T06:46:02;100530.38;;;2.26;41.71
63287;BME280;49410;55.708;37.522;2023-03-19T06:48:28;100547.81;;;2.20;40.75
63287;BME280;49410;55.708;37.522;2023-03-19T06:50:53;100524.38;;;2.21;40.78
63287;BME280;49410;55.708;37.522;2023-03-19T06:53:19;100549.97;;;2.44;41.71
63287;BME280;49410;55.708;37.522;2023-03-19T06:55:45;100540.38;;;2.53;40.79
63287;BME280;49410;55.708;37.522;2023-03-19T06:58:11;100542.72;;;2.59;41.59
63287;BME280;49410;55.708;37.522;2023-03-19T07:00:36;100552.75;;;2.57;41.69
63287;BME280;49410;55.708;37.522;2023-03-19T07:03:02;100544.06;;;2.66;41.11
63287;BME280;49410;55.708;37.522;2023-03-19T07:05:27;100531.91;;;2.59;41.48
63287;BME280;49410;55.708;37.522;2023-03-19T07:07:53;100543.09;;;2.67;41.23
63287;BME280;49410;55.708;37.522;2023-03-19T07:10:20;100528.03;;;2.77;40.57
63287;BME280;49410;55.708;37.522;2023-03-19T07:12:46;100528.09;;;2.90;39.81
63287;BME280;49410;55.708;37.522;2023-03-19T07:15:12;100537.88;;;3.06;40.43
63287;BME280;49410;55.708;37.522;2023-03-19T07:17:38;100524.06;;;3.10;41.28
63287;BME280;49410;55.708;37.522;2023-03-19T07:20:03;100529.53;;;3.23;40.75
63287;BME280;49410;55.708;37.522;2023-03-19T07:22:29;100522.44;;;3.08;39.46
63287;BME280;49410;55.708;37.522;2023-03-19T07:24:55;100523.66;;;3.17;39.88
63287;BME280;49410;55.708;37.522;2023-03-19T07:27:20;100518.72;;;3.23;39.50
63287;BME280;49410;55.708;37.522;2023-03-19T07:29:46;100520.38;;;3.11;39.56
63287;BME280;49410;55.708;37.522;2023-03-19T07:32:12;100521.22;;;2.99;38.52
63287;BME280;49410;55.708;37.522;2023-03-19T07:34:37;100511.22;;;2.72;39.26
63287;BME280;49410;55.708;37.522;2023-03-19T07:37:03;100505.34;;;2.66;39.70
63287;BME280;49410;55.708;37.522;2023-03-19T07:39:28;100506.72;;;2.58;40.11
63287;BME280;49410;55.708;37.522;2023-03-19T07:41:54;100506.34;;;2.64;41.06
63287;BME280;49410;55.708;37.522;2023-03-19T07:44:20;100505.75;;;2.74;41.43
63287;BME280;49410;55.708;37.522;2023-03-19T07:46:45;100505.75;;;3.01;41.32
63287;BME280;49410;55.708;37.522;2023-03-19T07:49:11;100502.81;;;3.19;40.23
63287;BME280;49410;55.708;37.522;2023-03-19T07:51:36;100509.88;;;3.34;41.09
63287;BME280;49410;55.708;37.522;2023-03-19T07:54:02;100483.34;;;3.26;40.44
63287;BME280;49410;55.708;37.522;2023-03-19T07:56:27;100505.72;;;3.56;40.45
63287;BME280;49410;55.708;37.522;2023-03-19T07:58:53;100513.75;;;3.70;40.01
63287;BME280;49410;55.708;37.522;2023-03-19T08:01:18;100495.47;;;3.74;40.05
63287;BME280;49410;55.708;37.522;2023-03-19T08:03:44;100507.59;;;3.94;40.23
63287;BME280;49410;55.708;37.522;2023-03-19T08:06:12;100506.53;;;3.97;39.65
63287;BME280;49410;55.708;37.522;2023-03-19T08:08:38;100501.66;;;4.02;39.58
63287;BME280;49410;55.708;37.522;2023-03-19T08:11:04;100483.47;;;4.04;40.05
63287;BME280;49410;55.708;37.522;2023-03-19T08:13:29;100494.16;;;4.18;39.61
63287;BME280;49410;55.708;37.522;2023-03-19T08:15:55;100479.66;;;4.19;38.81
63287;BME280;49410;55.708;37.522;2023-03-19T08:18:21;100488.03;;;4.16;38.26
63287;BME280;49410;55.708;37.522;2023-03-19T08:20:47;100479.56;;;3.95;37.65
63287;BME280;49410;55.708;37.522;2023-03-19T08:23:13;100477.81;;;3.94;38.30
63287;BME280;49410;55.708;37.522;2023-03-19T08:25:39;100472.97;;;3.99;38.91
63287;BME280;49410;55.708;37.522;2023-03-19T08:28:04;100477.16;;;4.03;39.15
63287;BME280;49410;55.708;37.522;2023-03-19T08:30:30;100485.09;;;3.81;38.52
63287;BME280;49410;55.708;37.522;2023-03-19T08:32:56;100448.16;;;3.67;39.69
63287;BME280;49410;55.708;37.522;2023-03-19T08:35:22;100469.28;;;3.75;39.39
63287;BME280;49410;55.708;37.522;2023-03-19T08:37:48;100466.88;;;3.70;38.97
63287;BME280;49410;55.708;37.522;2023-03-19T08:40:13;100459.09;;;3.52;39.60
63287;BME280;49410;55.708;37.522;2023-03-19T08:42:39;100458.75;;;3.44;39.46
63287;BME280;49410;55.708;37.522;2023-03-19T08:45:08;100458.63;;;3.46;40.36
63287;BME280;49410;55.708;37.522;2023-03-19T08:47:34;100444.69;;;3.52;39.69
63287;BME280;49410;55.708;37.522;2023-03-19T08:49:59;100445.44;;;3.54;40.00
63287;BME280;49410;55.708;37.522;2023-03-19T08:52:25;100407.44;;;3.30;40.34
63287;BME280;49410;55.708;37.522;2023-03-19T08:54:51;100442.97;;;3.51;40.43
63287;BME280;49410;55.708;37.522;2023-03-19T08:57:16;100430.19;;;3.53;39.84
63287;BME280;49410;55.708;37.522;2023-03-19T08:59:42;100416.91;;;3.63;40.63
63287;BME280;49410;55.708;37.522;2023-03-19T09:02:09;100416.69;;;3.79;41.05
63287;BME280;49410;55.708;37.522;2023-03-19T09:04:36;100420.13;;;3.55;42.13
63287;BME280;49410;55.708;37.522;2023-03-19T09:07:03;100415.28;;;3.60;40.70
63287;BME280;49410;55.708;37.522;2023-03-19T09:09:29;100409.88;;;3.73;40.00
63287;BME280;49410;55.708;37.522;2023-03-19T09:11:54;100399.13;;;3.71;41.04
63287;BME280;49410;55.708;37.522;2023-03-19T09:14:20;100380.09;;;3.73;40.44
63287;BME280;49410;55.708;37.522;2023-03-19T09:16:47;100396.63;;;3.94;39.77
63287;BME280;49410;55.708;37.522;2023-03-19T09:19:13;100391.78;;;3.99;41.05
63287;BME280;49410;55.708;37.522;2023-03-19T09:21:42;100382.56;;;4.02;41.07
63287;BME280;49410;55.708;37.522;2023-03-19T09:24:08;100382.34;;;3.92;40.01
63287;BME280;49410;55.708;37.522;2023-03-19T09:26:34;100377.28;;;4.00;40.98
63287;BME280;49410;55.708;37.522;2023-03-19T09:29:00;100387.63;;;4.07;41.01
63287;BME280;49410;55.708;37.522;2023-03-19T09:31:26;100385.38;;;4.00;40.19
63287;BME280;49410;55.708;37.522;2023-03-19T09:33:51;100380.06;;;3.99;41.22
63287;BME280;49410;55.708;37.522;2023-03-19T09:36:17;100371.53;;;3.79;40.88
63287;BME280;49410;55.708;37.522;2023-03-19T09:38:42;100371.22;;;3.84;40.31
63287;BME280;49410;55.708;37.522;2023-03-19T09:41:19;100392.53;;;3.88;42.23
63287;BME280;49410;55.708;37.522;2023-03-19T09:49:38;100383.19;;;4.06;41.71
63287;BME280;49410;55.708;37.522;2023-03-19T09:54:54;100373.50;;;3.90;41.71
63287;BME280;49410;55.708;37.522;2023-03-19T09:57:21;100384.75;;;3.97;41.11
63287;BME280;49410;55.708;37.522;2023-03-19T09:59:47;100375.97;;;3.80;41.67
63287;BME280;49410;55.708;37.522;2023-03-19T10:02:41;100380.09;;;3.86;42.07
63287;BME280;49410;55.708;37.522;2023-03-19T10:05:26;100349.56;;;3.84;42.48
63287;BME280;49410;55.708;37.522;2023-03-19T10:08:24;100373.34;;;4.04;42.75
63287;BME280;49410;55.708;37.522;2023-03-19T10:11:22;100370.63;;;4.04;43.53
63287;BME280;49410;55.708;37.522;2023-03-19T10:15:00;100370.63;;;4.04;41.65
63287;BME280;49410;55.708;37.522;2023-03-19T10:17:00;100353.13;;;3.97;40.97
63287;BME280;49410;55.708;37.522;2023-03-19T10:20:29;100357.66;;;4.10;41.30
63287;BME280;49410;55.708;37.522;2023-03-19T10:22:43;100356.22;;;4.17;41.63
63287;BME280;49410;55.708;37.522;2023-03-19T10:25:16;100347.88;;;4.20;42.93
63287;BME280;49410;55.708;37.522;2023-03-19T10:27:45;100343.22;;;4.22;42.10
63287;BME280;49410;55.708;37.522;2023-03-19T10:30:15;100333.66;;;4.29;41.73
63287;BME280;49410;55.708;37.522;2023-03-19T10:32:43;100347.25;;;4.41;41.93
63287;BME280;49410;55.708;37.522;2023-03-19T10:35:18;100341.94;;;4.39;40.64
63287;BME280;49410;55.708;37.522;2023-03-19T10:37:45;100326.03;;;4.34;42.41
63287;BME280;49410;55.708;37.522;2023-03-19T10:40:25;100342.13;;;4.49;42.38
63287;BME280;49410;55.708;37.522;2023-03-19T10:43:05;100331.88;;;4.41;40.96
63287;BME280;49410;55.708;37.522;2023-03-19T10:45:36;100335.47;;;4.53;40.90
63287;BME280;49410;55.708;37.522;2023-03-19T10:48:03;100316.03;;;4.48;41.05
63287;BME280;49410;55.708;37.522;2023-03-19T10:50:47;100318.38;;;4.53;42.32
63287;BME280;49410;55.708;37.522;2023-03-19T10:55:54;100311.16;;;4.40;42.02
63287;BME280;49410;55.708;37.522;2023-03-19T10:58:24;100307.19;;;4.33;41.87
63287;BME280;49410;55.708;37.522;2023-03-19T11:00:56;100305.88;;;4.39;41.86
63287;BME280;49410;55.708;37.522;2023-03-19T11:08:36;100312.13;;;4.52;43.23
63287;BME280;49410;55.708;37.522;2023-03-19T11:11:02;100311.00;;;4.55;42.35
63287;BME280;49410;55.708;37.522;2023-03-19T11:13:28;100294.47;;;4.46;41.82
63287;BME280;49410;55.708;37.522;2023-03-19T11:15:58;100297.50;;;4.66;42.60
63287;BME280;49410;55.708;37.522;2023-03-19T11:18:29;100286.91;;;4.63;42.54
63287;BME280;49410;55.708;37.522;2023-03-19T11:21:01;100288.09;;;4.59;42.29
63287;BME280;49410;55.708;37.522;2023-03-19T11:23:39;100280.72;;;4.61;42.28
63287;BME280;49410;55.708;37.522;2023-03-19T11:26:05;100294.53;;;4.69;42.88
63287;BME280;49410;55.708;37.522;2023-03-19T11:28:30;100293.28;;;4.62;41.68
63287;BME280;49410;55.708;37.522;2023-03-19T11:34:02;100291.34;;;4.64;42.64
63287;BME280;49410;55.708;37.522;2023-03-19T11:39:27;100274.59;;;4.70;42.18
63287;BME280;49410;55.708;37.522;2023-03-19T11:50:21;100286.94;;;4.74;43.29
63287;BME280;49410;55.708;37.522;2023-03-19T11:53:02;100245.03;;;4.56;42.59
63287;BME280;49410;55.708;37.522;2023-03-19T11:55:57;100273.75;;;4.70;44.10
63287;BME280;49410;55.708;37.522;2023-03-19T12:00:55;100263.00;;;4.68;43.22
63287;BME280;49410;55.708;37.522;2023-03-19T12:06:31;100262.53;;;4.63;43.82
63287;BME280;49410;55.708;37.522;2023-03-19T12:12:06;100253.78;;;4.59;43.76
63287;BME280;49410;55.708;37.522;2023-03-19T12:27:37;100229.97;;;4.51;43.96
63287;BME280;49410;55.708;37.522;2023-03-19T12:30:25;100224.78;;;4.48;44.03
63287;BME280;49410;55.708;37.522;2023-03-19T12:35:37;100213.44;;;4.43;42.27
63287;BME280;49410;55.708;37.522;2023-03-19T12:40:38;100195.94;;;4.36;43.54
63287;BME280;49410;55.708;37.522;2023-03-19T12:43:29;100204.44;;;4.43;43.85
63287;BME280;49410;55.708;37.522;2023-03-19T12:49:04;100198.41;;;4.39;44.21
63287;BME280;49410;55.708;37.522;2023-03-19T12:51:35;100195.31;;;4.32;43.61
63287;BME280;49410;55.708;37.522;2023-03-19T12:54:12;100182.28;;;4.38;42.88
63287;BME280;49410;55.708;37.522;2023-03-19T12:57:05;100169.94;;;4.22;43.00
63287;BME280;49410;55.708;37.522;2023-03-19T13:02:41;100172.38;;;4.25;42.92
63287;BME280;49410;55.708;37.522;2023-03-19T13:05:33;100172.53;;;4.24;43.27
63287;BME280;49410;55.708;37.522;2023-03-19T13:08:18;100149.31;;;4.08;42.99
63287;BME280;49410;55.708;37.522;2023-03-19T13:10:46;100162.13;;;4.17;43.18
63287;BME280;49410;55.708;37.522;2023-03-19T13:16:01;100151.97;;;4.21;42.74
63287;BME280;49410;55.708;37.522;2023-03-19T13:18:46;100157.97;;;4.13;42.69
63287;BME280;49410;55.708;37.522;2023-03-19T13:21:24;100158.72;;;4.15;44.17
63287;BME280;49410;55.708;37.522;2023-03-19T13:26:37;100154.00;;;4.17;42.78
63287;BME280;49410;55.708;37.522;2023-03-19T13:31:35;100150.22;;;4.20;43.44
63287;BME280;49410;55.708;37.522;2023-03-19T13:34:20;100147.19;;;4.25;43.26
63287;BME280;49410;55.708;37.522;2023-03-19T13:37:15;100145.44;;;4.24;42.59
63287;BME280;49410;55.708;37.522;2023-03-19T13:39:42;100132.88;;;4.23;42.88
63287;BME280;49410;55.708;37.522;2023-03-19T13:44:51;100133.16;;;4.31;43.25
63287;BME280;49410;55.708;37.522;2023-03-19T13:55:45;100118.84;;;4.29;42.77
63287;BME280;49410;55.708;37.522;2023-03-19T13:58:20;100125.91;;;4.31;42.59
63287;BME280;49410;55.708;37.522;2023-03-19T14:01:09;100112.59;;;4.28;42.21
63287;BME280;49410;55.708;37.522;2023-03-19T14:03:39;100109.75;;;4.30;42.57
63287;BME280;49410;55.708;37.522;2023-03-19T14:09:00;100099.28;;;4.25;42.72
63287;BME280;49410;55.708;37.522;2023-03-19T14:11:35;100112.22;;;4.22;42.59
63287;BME280;49410;55.708;37.522;2023-03-19T14:14:04;100106.78;;;4.22;42.80
63287;BME280;49410;55.708;37.522;2023-03-19T14:16:36;100091.13;;;4.14;43.10
63287;BME280;49410;55.708;37.522;2023-03-19T14:19:10;100108.53;;;4.23;43.32